sensor_id;sensor_type;location;lat;lon;timestamp;P1;durP1;ratioP1;P2;durP2;ratioP2
18651;SDS011;9455;54.302;10.124;2024-03-08T00:00:45;13.10;;;6.17;;
18651;SDS011;9455;54.302;10.124;2024-03-08T00:03:12;15.73;;;6.30;;
18651;SDS011;9455;54.302;10.124;2024-03-08T00:05:39;11.40;;;6.10;;
18651;SDS011;9455;54.302;10.124;2024-03-08T00:08:06;12.43;;;6.03;;
18651;SDS011;9455;54.302;10.124;2024-03-08T00:10:34;15.03;;;5.80;;
18651;SDS011;9455;54.302;10.124;2024-03-08T00:13:01;12.43;;;6.43;;
18651;SDS011;9455;54.302;10.124;2024-03-08T00:15:30;14.40;;;6.70;;
18651;SDS011;9455;54.302;10.124;2024-03-08T00:17:57;12.97;;;6.00;;
18651;SDS011;9455;54.302;10.124;2024-03-08T00:20:24;10.30;;;6.17;;
18651;SDS011;9455;54.302;10.124;2024-03-08T00:22:50;11.10;;;6.10;;
18651;SDS011;9455;54.302;10.124;2024-03-08T00:25:17;16.73;;;5.83;;
18651;SDS011;9455;54.302;10.124;2024-03-08T00:27:43;15.73;;;6.60;;
18651;SDS011;9455;54.302;10.124;2024-03-08T00:30:10;13.30;;;6.63;;
18651;SDS011;9455;54.302;10.124;2024-03-08T00:32:39;14.47;;;6.40;;
18651;SDS011;9455;54.302;10.124;2024-03-08T00:35:06;13.13;;;5.87;;
18651;SDS011;9455;54.302;10.124;2024-03-08T00:37:33;15.60;;;6.57;;
18651;SDS011;9455;54.302;10.124;2024-03-08T00:40:00;15.90;;;5.57;;
18651;SDS011;9455;54.302;10.124;2024-03-08T00:42:27;13.90;;;5.70;;
18651;SDS011;9455;54.302;10.124;2024-03-08T00:44:54;10.33;;;6.00;;
18651;SDS011;9455;54.302;10.124;2024-03-08T00:47:20;13.40;;;6.40;;
18651;SDS011;9455;54.302;10.124;2024-03-08T00:49:48;10.80;;;5.57;;
18651;SDS011;9455;54.302;10.124;2024-03-08T00:52:15;14.70;;;6.37;;
18651;SDS011;9455;54.302;10.124;2024-03-08T00:54:43;15.40;;;6.27;;
18651;SDS011;9455;54.302;10.124;2024-03-08T00:57:10;13.33;;;6.10;;
18651;SDS011;9455;54.302;10.124;2024-03-08T00:59:37;15.43;;;6.23;;
18651;SDS011;9455;54.302;10.124;2024-03-08T01:02:04;11.87;;;6.27;;
18651;SDS011;9455;54.302;10.124;2024-03-08T01:04:31;13.57;;;6.20;;
18651;SDS011;9455;54.302;10.124;2024-03-08T01:06:59;15.63;;;5.97;;
18651;SDS011;9455;54.302;10.124;2024-03-08T01:09:26;18.00;;;6.87;;
18651;SDS011;9455;54.302;10.124;2024-03-08T01:11:53;14.77;;;7.00;;
18651;SDS011;9455;54.302;10.124;2024-03-08T01:14:20;15.20;;;7.00;;
18651;SDS011;9455;54.302;10.124;2024-03-08T01:16:48;18.20;;;6.60;;
18651;SDS011;9455;54.302;10.124;2024-03-08T01:19:15;21.30;;;7.80;;
18651;SDS011;9455;54.302;10.124;2024-03-08T01:21:42;14.17;;;6.70;;
18651;SDS011;9455;54.302;10.124;2024-03-08T01:24:11;14.60;;;7.17;;
18651;SDS011;9455;54.302;10.124;2024-03-08T01:26:37;16.13;;;6.80;;
18651;SDS011;9455;54.302;10.124;2024-03-08T01:29:04;13.63;;;6.70;;
18651;SDS011;9455;54.302;10.124;2024-03-08T01:31:31;14.57;;;7.10;;
18651;SDS011;9455;54.302;10.124;2024-03-08T01:33:58;15.43;;;6.60;;
18651;SDS011;9455;54.302;10.124;2024-03-08T01:36:25;13.13;;;6.30;;
18651;SDS011;9455;54.302;10.124;2024-03-08T01:38:51;12.77;;;6.10;;
18651;SDS011;9455;54.302;10.124;2024-03-08T01:41:20;12.03;;;6.47;;
18651;SDS011;9455;54.302;10.124;2024-03-08T01:43:46;11.73;;;6.20;;
18651;SDS011;9455;54.302;10.124;2024-03-08T01:46:14;11.50;;;6.20;;
18651;SDS011;9455;54.302;10.124;2024-03-08T01:48:44;12.33;;;6.17;;
18651;SDS011;9455;54.302;10.124;2024-03-08T01:51:11;17.37;;;5.97;;
18651;SDS011;9455;54.302;10.124;2024-03-08T01:53:40;13.83;;;6.30;;
18651;SDS011;9455;54.302;10.124;2024-03-08T01:56:10;16.20;;;6.63;;
18651;SDS011;9455;54.302;10.124;2024-03-08T01:58:40;12.50;;;5.67;;
18651;SDS011;9455;54.302;10.124;2024-03-08T02:01:08;16.33;;;5.83;;
18651;SDS011;9455;54.302;10.124;2024-03-08T02:03:37;13.63;;;6.40;;
18651;SDS011;9455;54.302;10.124;2024-03-08T02:06:04;10.87;;;5.87;;
18651;SDS011;9455;54.302;10.124;2024-03-08T02:08:35;16.10;;;6.83;;
18651;SDS011;9455;54.302;10.124;2024-03-08T02:11:01;11.37;;;5.93;;
18651;SDS011;9455;54.302;10.124;2024-03-08T02:13:28;13.47;;;5.17;;
18651;SDS011;9455;54.302;10.124;2024-03-08T02:15:57;16.07;;;6.90;;
18651;SDS011;9455;54.302;10.124;2024-03-08T02:18:25;11.07;;;6.50;;
18651;SDS011;9455;54.302;10.124;2024-03-08T02:20:54;18.10;;;7.63;;
18651;SDS011;9455;54.302;10.124;2024-03-08T02:23:21;15.10;;;6.07;;
18651;SDS011;9455;54.302;10.124;2024-03-08T02:25:48;13.57;;;6.77;;
18651;SDS011;9455;54.302;10.124;2024-03-08T02:28:16;13.37;;;6.43;;
18651;SDS011;9455;54.302;10.124;2024-03-08T02:30:43;19.60;;;6.93;;
18651;SDS011;9455;54.302;10.124;2024-03-08T02:33:13;17.80;;;6.70;;
18651;SDS011;9455;54.302;10.124;2024-03-08T02:35:41;17.53;;;7.20;;
18651;SDS011;9455;54.302;10.124;2024-03-08T02:38:12;15.63;;;6.87;;
18651;SDS011;9455;54.302;10.124;2024-03-08T02:40:41;16.27;;;7.17;;
18651;SDS011;9455;54.302;10.124;2024-03-08T02:43:08;15.07;;;6.37;;
18651;SDS011;9455;54.302;10.124;2024-03-08T02:45:34;22.23;;;7.60;;
18651;SDS011;9455;54.302;10.124;2024-03-08T02:48:01;14.50;;;6.97;;
18651;SDS011;9455;54.302;10.124;2024-03-08T02:50:28;17.00;;;7.60;;
18651;SDS011;9455;54.302;10.124;2024-03-08T02:52:54;18.20;;;7.33;;
18651;SDS011;9455;54.302;10.124;2024-03-08T02:55:22;24.03;;;8.17;;
18651;SDS011;9455;54.302;10.124;2024-03-08T02:57:50;19.33;;;8.43;;
18651;SDS011;9455;54.302;10.124;2024-03-08T03:00:19;20.97;;;7.57;;
18651;SDS011;9455;54.302;10.124;2024-03-08T03:02:48;17.87;;;8.40;;
18651;SDS011;9455;54.302;10.124;2024-03-08T03:05:17;14.53;;;7.33;;
18651;SDS011;9455;54.302;10.124;2024-03-08T03:07:43;19.27;;;8.07;;
18651;SDS011;9455;54.302;10.124;2024-03-08T03:10:10;21.17;;;7.60;;
18651;SDS011;9455;54.302;10.124;2024-03-08T03:12:38;16.20;;;7.70;;
18651;SDS011;9455;54.302;10.124;2024-03-08T03:15:05;20.40;;;7.63;;
18651;SDS011;9455;54.302;10.124;2024-03-08T03:17:33;20.20;;;8.07;;
18651;SDS011;9455;54.302;10.124;2024-03-08T03:19:59;17.47;;;8.10;;
18651;SDS011;9455;54.302;10.124;2024-03-08T03:22:29;18.83;;;8.20;;
18651;SDS011;9455;54.302;10.124;2024-03-08T03:24:55;19.83;;;8.23;;
18651;SDS011;9455;54.302;10.124;2024-03-08T03:27:23;20.93;;;8.37;;
18651;SDS011;9455;54.302;10.124;2024-03-08T03:29:51;22.23;;;8.97;;
18651;SDS011;9455;54.302;10.124;2024-03-08T03:32:17;21.13;;;8.83;;
18651;SDS011;9455;54.302;10.124;2024-03-08T03:34:44;21.43;;;9.87;;
18651;SDS011;9455;54.302;10.124;2024-03-08T03:37:11;25.40;;;9.43;;
18651;SDS011;9455;54.302;10.124;2024-03-08T03:39:38;22.23;;;9.57;;
18651;SDS011;9455;54.302;10.124;2024-03-08T03:42:13;28.03;;;10.57;;
18651;SDS011;9455;54.302;10.124;2024-03-08T03:44:41;22.37;;;9.97;;
18651;SDS011;9455;54.302;10.124;2024-03-08T03:47:09;24.07;;;10.13;;
18651;SDS011;9455;54.302;10.124;2024-03-08T03:49:36;26.33;;;10.17;;
18651;SDS011;9455;54.302;10.124;2024-03-08T03:52:03;26.03;;;10.90;;
18651;SDS011;9455;54.302;10.124;2024-03-08T03:54:30;21.53;;;9.33;;
18651;SDS011;9455;54.302;10.124;2024-03-08T03:56:58;26.23;;;10.90;;
18651;SDS011;9455;54.302;10.124;2024-03-08T03:59:25;29.03;;;11.23;;
18651;SDS011;9455;54.302;10.124;2024-03-08T04:01:52;28.10;;;11.17;;
18651;SDS011;9455;54.302;10.124;2024-03-08T04:04:20;26.50;;;10.93;;
18651;SDS011;9455;54.302;10.124;2024-03-08T04:06:48;22.87;;;11.50;;
18651;SDS011;9455;54.302;10.124;2024-03-08T04:09:16;25.20;;;10.70;;
18651;SDS011;9455;54.302;10.124;2024-03-08T04:11:44;23.93;;;10.13;;
18651;SDS011;9455;54.302;10.124;2024-03-08T04:14:10;29.63;;;11.40;;
18651;SDS011;9455;54.302;10.124;2024-03-08T04:16:37;26.17;;;12.00;;
18651;SDS011;9455;54.302;10.124;2024-03-08T04:19:04;28.10;;;11.43;;
18651;SDS011;9455;54.302;10.124;2024-03-08T04:21:32;26.77;;;11.67;;
18651;SDS011;9455;54.302;10.124;2024-03-08T04:23:58;28.07;;;11.97;;
18651;SDS011;9455;54.302;10.124;2024-03-08T04:26:26;26.90;;;12.57;;
18651;SDS011;9455;54.302;10.124;2024-03-08T04:28:52;31.33;;;11.77;;
18651;SDS011;9455;54.302;10.124;2024-03-08T04:31:19;24.83;;;11.67;;
18651;SDS011;9455;54.302;10.124;2024-03-08T04:33:46;34.57;;;12.33;;
18651;SDS011;9455;54.302;10.124;2024-03-08T04:36:13;29.87;;;12.00;;
18651;SDS011;9455;54.302;10.124;2024-03-08T04:38:41;26.57;;;11.53;;
18651;SDS011;9455;54.302;10.124;2024-03-08T04:41:08;24.40;;;10.80;;
18651;SDS011;9455;54.302;10.124;2024-03-08T04:43:35;27.37;;;11.60;;
18651;SDS011;9455;54.302;10.124;2024-03-08T04:46:01;25.90;;;11.80;;
18651;SDS011;9455;54.302;10.124;2024-03-08T04:48:30;27.93;;;12.27;;
18651;SDS011;9455;54.302;10.124;2024-03-08T04:50:57;24.97;;;11.17;;
18651;SDS011;9455;54.302;10.124;2024-03-08T04:53:24;25.93;;;11.03;;
18651;SDS011;9455;54.302;10.124;2024-03-08T04:55:52;26.23;;;10.67;;
18651;SDS011;9455;54.302;10.124;2024-03-08T04:58:18;25.10;;;11.00;;
18651;SDS011;9455;54.302;10.124;2024-03-08T05:00:46;29.30;;;10.70;;
18651;SDS011;9455;54.302;10.124;2024-03-08T05:03:13;24.60;;;11.27;;
18651;SDS011;9455;54.302;10.124;2024-03-08T05:05:39;26.60;;;11.80;;
18651;SDS011;9455;54.302;10.124;2024-03-08T05:08:06;28.33;;;10.97;;
18651;SDS011;9455;54.302;10.124;2024-03-08T05:10:33;26.57;;;10.67;;
18651;SDS011;9455;54.302;10.124;2024-03-08T05:13:00;22.90;;;11.40;;
18651;SDS011;9455;54.302;10.124;2024-03-08T05:15:27;22.10;;;10.77;;
18651;SDS011;9455;54.302;10.124;2024-03-08T05:17:54;24.53;;;10.90;;
18651;SDS011;9455;54.302;10.124;2024-03-08T05:20:23;27.03;;;11.50;;
18651;SDS011;9455;54.302;10.124;2024-03-08T05:22:49;24.87;;;11.37;;
18651;SDS011;9455;54.302;10.124;2024-03-08T05:25:17;23.57;;;10.73;;
18651;SDS011;9455;54.302;10.124;2024-03-08T05:27:44;32.67;;;12.63;;
18651;SDS011;9455;54.302;10.124;2024-03-08T05:30:14;27.83;;;10.43;;
18651;SDS011;9455;54.302;10.124;2024-03-08T05:32:40;29.37;;;11.10;;
18651;SDS011;9455;54.302;10.124;2024-03-08T05:35:09;25.80;;;10.83;;
18651;SDS011;9455;54.302;10.124;2024-03-08T05:37:37;20.63;;;10.30;;
18651;SDS011;9455;54.302;10.124;2024-03-08T05:40:04;23.93;;;10.63;;
18651;SDS011;9455;54.302;10.124;2024-03-08T05:42:34;23.47;;;9.77;;
18651;SDS011;9455;54.302;10.124;2024-03-08T05:45:01;21.53;;;10.00;;
18651;SDS011;9455;54.302;10.124;2024-03-08T05:47:29;29.53;;;10.33;;
18651;SDS011;9455;54.302;10.124;2024-03-08T05:49:56;28.53;;;10.70;;
18651;SDS011;9455;54.302;10.124;2024-03-08T05:52:22;27.90;;;10.40;;
18651;SDS011;9455;54.302;10.124;2024-03-08T05:54:50;22.10;;;10.40;;
18651;SDS011;9455;54.302;10.124;2024-03-08T05:57:17;19.50;;;10.73;;
18651;SDS011;9455;54.302;10.124;2024-03-08T05:59:44;22.97;;;10.80;;
18651;SDS011;9455;54.302;10.124;2024-03-08T06:02:10;21.17;;;10.40;;
18651;SDS011;9455;54.302;10.124;2024-03-08T06:04:38;38.10;;;11.03;;
18651;SDS011;9455;54.302;10.124;2024-03-08T06:07:07;21.97;;;10.30;;
18651;SDS011;9455;54.302;10.124;2024-03-08T06:09:37;25.53;;;10.83;;
18651;SDS011;9455;54.302;10.124;2024-03-08T06:12:04;25.43;;;10.67;;
18651;SDS011;9455;54.302;10.124;2024-03-08T06:14:34;27.77;;;10.80;;
18651;SDS011;9455;54.302;10.124;2024-03-08T06:17:01;24.47;;;10.80;;
18651;SDS011;9455;54.302;10.124;2024-03-08T06:19:27;21.73;;;9.93;;
18651;SDS011;9455;54.302;10.124;2024-03-08T06:21:56;21.23;;;9.50;;
18651;SDS011;9455;54.302;10.124;2024-03-08T06:24:22;26.70;;;10.73;;
18651;SDS011;9455;54.302;10.124;2024-03-08T06:26:49;20.83;;;10.63;;
18651;SDS011;9455;54.302;10.124;2024-03-08T06:29:16;27.20;;;12.00;;
18651;SDS011;9455;54.302;10.124;2024-03-08T06:31:42;25.10;;;11.40;;
18651;SDS011;9455;54.302;10.124;2024-03-08T06:34:09;23.70;;;11.63;;
18651;SDS011;9455;54.302;10.124;2024-03-08T06:36:36;26.40;;;11.73;;
18651;SDS011;9455;54.302;10.124;2024-03-08T06:39:05;26.27;;;11.27;;
18651;SDS011;9455;54.302;10.124;2024-03-08T06:41:34;22.97;;;11.03;;
18651;SDS011;9455;54.302;10.124;2024-03-08T06:44:01;26.27;;;11.43;;
18651;SDS011;9455;54.302;10.124;2024-03-08T06:46:28;25.50;;;12.10;;
18651;SDS011;9455;54.302;10.124;2024-03-08T06:48:55;26.90;;;11.13;;
18651;SDS011;9455;54.302;10.124;2024-03-08T06:51:22;27.37;;;11.87;;
18651;SDS011;9455;54.302;10.124;2024-03-08T06:53:49;28.43;;;12.07;;
18651;SDS011;9455;54.302;10.124;2024-03-08T06:56:18;31.23;;;11.87;;
18651;SDS011;9455;54.302;10.124;2024-03-08T06:58:45;26.77;;;12.30;;
18651;SDS011;9455;54.302;10.124;2024-03-08T07:01:13;30.20;;;12.27;;
18651;SDS011;9455;54.302;10.124;2024-03-08T07:03:41;28.20;;;12.43;;
18651;SDS011;9455;54.302;10.124;2024-03-08T07:06:09;25.80;;;12.47;;
18651;SDS011;9455;54.302;10.124;2024-03-08T07:08:36;24.50;;;11.30;;
18651;SDS011;9455;54.302;10.124;2024-03-08T07:11:03;29.70;;;13.30;;
18651;SDS011;9455;54.302;10.124;2024-03-08T07:13:35;29.33;;;12.33;;
18651;SDS011;9455;54.302;10.124;2024-03-08T07:16:34;33.53;;;12.30;;
18651;SDS011;9455;54.302;10.124;2024-03-08T07:19:02;30.97;;;13.83;;
18651;SDS011;9455;54.302;10.124;2024-03-08T07:21:28;29.27;;;12.53;;
18651;SDS011;9455;54.302;10.124;2024-03-08T07:23:55;30.17;;;12.23;;
18651;SDS011;9455;54.302;10.124;2024-03-08T07:26:38;33.00;;;12.50;;
18651;SDS011;9455;54.302;10.124;2024-03-08T07:29:06;28.83;;;13.00;;
18651;SDS011;9455;54.302;10.124;2024-03-08T07:31:33;29.37;;;12.20;;
18651;SDS011;9455;54.302;10.124;2024-03-08T07:34:15;32.73;;;12.83;;
18651;SDS011;9455;54.302;10.124;2024-03-08T07:36:42;27.83;;;11.63;;
18651;SDS011;9455;54.302;10.124;2024-03-08T07:39:08;26.33;;;12.37;;
18651;SDS011;9455;54.302;10.124;2024-03-08T07:41:36;33.57;;;12.50;;
18651;SDS011;9455;54.302;10.124;2024-03-08T07:44:06;33.93;;;12.77;;
18651;SDS011;9455;54.302;10.124;2024-03-08T07:46:33;29.57;;;12.17;;
18651;SDS011;9455;54.302;10.124;2024-03-08T07:49:00;32.97;;;13.83;;
18651;SDS011;9455;54.302;10.124;2024-03-08T07:51:28;34.30;;;13.17;;
18651;SDS011;9455;54.302;10.124;2024-03-08T07:53:55;30.57;;;13.60;;
18651;SDS011;9455;54.302;10.124;2024-03-08T07:56:22;27.17;;;12.00;;
18651;SDS011;9455;54.302;10.124;2024-03-08T07:58:50;28.67;;;13.17;;
18651;SDS011;9455;54.302;10.124;2024-03-08T08:01:19;31.20;;;13.00;;
18651;SDS011;9455;54.302;10.124;2024-03-08T08:03:46;31.10;;;12.27;;
18651;SDS011;9455;54.302;10.124;2024-03-08T08:06:14;32.63;;;13.07;;
18651;SDS011;9455;54.302;10.124;2024-03-08T08:08:41;30.97;;;12.63;;
18651;SDS011;9455;54.302;10.124;2024-03-08T08:11:08;26.57;;;12.97;;
18651;SDS011;9455;54.302;10.124;2024-03-08T08:13:36;29.27;;;12.43;;
18651;SDS011;9455;54.302;10.124;2024-03-08T08:16:04;28.87;;;13.00;;
18651;SDS011;9455;54.302;10.124;2024-03-08T08:18:40;34.10;;;13.60;;
18651;SDS011;9455;54.302;10.124;2024-03-08T08:21:07;32.73;;;13.30;;
18651;SDS011;9455;54.302;10.124;2024-03-08T08:23:34;29.60;;;13.87;;
18651;SDS011;9455;54.302;10.124;2024-03-08T08:26:00;37.77;;;15.77;;
18651;SDS011;9455;54.302;10.124;2024-03-08T08:28:28;35.27;;;15.50;;
18651;SDS011;9455;54.302;10.124;2024-03-08T08:30:55;33.47;;;14.77;;
18651;SDS011;9455;54.302;10.124;2024-03-08T08:33:22;34.33;;;14.10;;
18651;SDS011;9455;54.302;10.124;2024-03-08T08:35:51;32.80;;;14.70;;
18651;SDS011;9455;54.302;10.124;2024-03-08T08:38:19;39.77;;;16.20;;
18651;SDS011;9455;54.302;10.124;2024-03-08T08:40:46;34.63;;;14.57;;
18651;SDS011;9455;54.302;10.124;2024-03-08T08:43:13;30.07;;;13.43;;
18651;SDS011;9455;54.302;10.124;2024-03-08T08:45:40;35.50;;;13.40;;
18651;SDS011;9455;54.302;10.124;2024-03-08T08:48:07;28.67;;;13.60;;
18651;SDS011;9455;54.302;10.124;2024-03-08T08:50:35;31.33;;;13.63;;
18651;SDS011;9455;54.302;10.124;2024-03-08T08:53:04;31.00;;;13.50;;
18651;SDS011;9455;54.302;10.124;2024-03-08T08:55:32;27.53;;;13.73;;
18651;SDS011;9455;54.302;10.124;2024-03-08T08:58:00;37.33;;;13.73;;
18651;SDS011;9455;54.302;10.124;2024-03-08T09:00:28;36.73;;;13.93;;
18651;SDS011;9455;54.302;10.124;2024-03-08T09:02:56;30.40;;;13.37;;
18651;SDS011;9455;54.302;10.124;2024-03-08T09:05:23;33.07;;;14.30;;
18651;SDS011;9455;54.302;10.124;2024-03-08T09:07:50;32.80;;;13.83;;
18651;SDS011;9455;54.302;10.124;2024-03-08T09:10:18;34.47;;;13.23;;
18651;SDS011;9455;54.302;10.124;2024-03-08T09:12:44;40.33;;;14.33;;
18651;SDS011;9455;54.302;10.124;2024-03-08T09:15:12;31.47;;;13.07;;
18651;SDS011;9455;54.302;10.124;2024-03-08T09:17:39;35.40;;;14.43;;
18651;SDS011;9455;54.302;10.124;2024-03-08T09:20:06;36.13;;;14.00;;
18651;SDS011;9455;54.302;10.124;2024-03-08T09:22:33;32.43;;;13.30;;
18651;SDS011;9455;54.302;10.124;2024-03-08T09:25:00;31.83;;;13.37;;
18651;SDS011;9455;54.302;10.124;2024-03-08T09:27:29;31.73;;;13.93;;
18651;SDS011;9455;54.302;10.124;2024-03-08T09:29:55;29.03;;;13.13;;
18651;SDS011;9455;54.302;10.124;2024-03-08T09:32:22;32.90;;;14.73;;
18651;SDS011;9455;54.302;10.124;2024-03-08T09:34:48;33.87;;;14.73;;
18651;SDS011;9455;54.302;10.124;2024-03-08T09:37:15;29.00;;;12.47;;
18651;SDS011;9455;54.302;10.124;2024-03-08T09:39:42;33.97;;;14.57;;
18651;SDS011;9455;54.302;10.124;2024-03-08T09:42:09;32.90;;;14.13;;
18651;SDS011;9455;54.302;10.124;2024-03-08T09:44:41;29.10;;;13.33;;
18651;SDS011;9455;54.302;10.124;2024-03-08T09:47:11;31.57;;;12.87;;
18651;SDS011;9455;54.302;10.124;2024-03-08T09:49:40;38.83;;;14.27;;
18651;SDS011;9455;54.302;10.124;2024-03-08T09:52:07;31.03;;;13.53;;
18651;SDS011;9455;54.302;10.124;2024-03-08T09:54:35;35.03;;;13.93;;
18651;SDS011;9455;54.302;10.124;2024-03-08T09:57:02;32.63;;;13.50;;
18651;SDS011;9455;54.302;10.124;2024-03-08T09:59:30;35.47;;;14.70;;
18651;SDS011;9455;54.302;10.124;2024-03-08T10:02:12;34.77;;;14.87;;
18651;SDS011;9455;54.302;10.124;2024-03-08T10:04:41;32.23;;;13.97;;
18651;SDS011;9455;54.302;10.124;2024-03-08T10:07:08;32.77;;;14.00;;
18651;SDS011;9455;54.302;10.124;2024-03-08T10:09:35;34.03;;;12.77;;
18651;SDS011;9455;54.302;10.124;2024-03-08T10:12:02;35.67;;;14.00;;
18651;SDS011;9455;54.302;10.124;2024-03-08T10:14:30;33.17;;;14.50;;
18651;SDS011;9455;54.302;10.124;2024-03-08T10:16:57;39.73;;;13.83;;
18651;SDS011;9455;54.302;10.124;2024-03-08T10:19:26;36.93;;;14.27;;
18651;SDS011;9455;54.302;10.124;2024-03-08T10:21:55;34.93;;;13.83;;
18651;SDS011;9455;54.302;10.124;2024-03-08T10:24:23;31.47;;;13.30;;
18651;SDS011;9455;54.302;10.124;2024-03-08T10:26:52;41.00;;;15.10;;
18651;SDS011;9455;54.302;10.124;2024-03-08T10:29:19;37.00;;;14.43;;
18651;SDS011;9455;54.302;10.124;2024-03-08T10:31:46;34.70;;;14.40;;
18651;SDS011;9455;54.302;10.124;2024-03-08T10:34:12;35.27;;;13.67;;
18651;SDS011;9455;54.302;10.124;2024-03-08T10:36:41;33.60;;;13.33;;
18651;SDS011;9455;54.302;10.124;2024-03-08T10:39:10;34.97;;;13.03;;
18651;SDS011;9455;54.302;10.124;2024-03-08T10:41:46;30.70;;;13.30;;
18651;SDS011;9455;54.302;10.124;2024-03-08T10:44:29;31.90;;;13.23;;
18651;SDS011;9455;54.302;10.124;2024-03-08T10:47:09;31.50;;;12.93;;
18651;SDS011;9455;54.302;10.124;2024-03-08T10:49:46;35.90;;;13.47;;
18651;SDS011;9455;54.302;10.124;2024-03-08T10:52:18;30.77;;;12.60;;
18651;SDS011;9455;54.302;10.124;2024-03-08T10:54:45;26.13;;;12.10;;
18651;SDS011;9455;54.302;10.124;2024-03-08T10:57:14;29.60;;;13.10;;
18651;SDS011;9455;54.302;10.124;2024-03-08T10:59:44;33.80;;;13.43;;
18651;SDS011;9455;54.302;10.124;2024-03-08T11:02:11;27.87;;;11.90;;
18651;SDS011;9455;54.302;10.124;2024-03-08T11:04:38;24.90;;;12.07;;
18651;SDS011;9455;54.302;10.124;2024-03-08T11:07:06;29.90;;;12.93;;
18651;SDS011;9455;54.302;10.124;2024-03-08T11:09:35;29.87;;;12.63;;
18651;SDS011;9455;54.302;10.124;2024-03-08T11:12:19;32.30;;;13.13;;
18651;SDS011;9455;54.302;10.124;2024-03-08T11:14:51;26.97;;;11.43;;
18651;SDS011;9455;54.302;10.124;2024-03-08T11:17:25;29.00;;;12.03;;
18651;SDS011;9455;54.302;10.124;2024-03-08T11:20:08;30.47;;;12.37;;
18651;SDS011;9455;54.302;10.124;2024-03-08T11:22:40;33.40;;;12.23;;
18651;SDS011;9455;54.302;10.124;2024-03-08T11:25:30;24.93;;;11.53;;
18651;SDS011;9455;54.302;10.124;2024-03-08T11:28:08;31.60;;;13.33;;
18651;SDS011;9455;54.302;10.124;2024-03-08T11:30:41;32.57;;;12.57;;
18651;SDS011;9455;54.302;10.124;2024-03-08T11:33:10;30.63;;;12.83;;
18651;SDS011;9455;54.302;10.124;2024-03-08T11:35:38;28.87;;;11.73;;
18651;SDS011;9455;54.302;10.124;2024-03-08T11:38:07;34.73;;;14.13;;
18651;SDS011;9455;54.302;10.124;2024-03-08T11:40:35;33.43;;;12.97;;
18651;SDS011;9455;54.302;10.124;2024-03-08T11:43:02;31.43;;;11.73;;
18651;SDS011;9455;54.302;10.124;2024-03-08T11:45:32;30.40;;;11.97;;
18651;SDS011;9455;54.302;10.124;2024-03-08T11:48:01;25.47;;;11.57;;
18651;SDS011;9455;54.302;10.124;2024-03-08T11:50:28;25.43;;;12.43;;
18651;SDS011;9455;54.302;10.124;2024-03-08T11:52:59;28.10;;;12.43;;
18651;SDS011;9455;54.302;10.124;2024-03-08T11:55:27;27.77;;;10.60;;
18651;SDS011;9455;54.302;10.124;2024-03-08T11:58:00;23.87;;;10.97;;
18651;SDS011;9455;54.302;10.124;2024-03-08T12:00:33;28.27;;;11.70;;
18651;SDS011;9455;54.302;10.124;2024-03-08T12:03:03;27.57;;;11.90;;
18651;SDS011;9455;54.302;10.124;2024-03-08T12:05:31;36.47;;;13.77;;
18651;SDS011;9455;54.302;10.124;2024-03-08T12:07:59;28.40;;;12.33;;
18651;SDS011;9455;54.302;10.124;2024-03-08T12:10:26;29.43;;;12.10;;
18651;SDS011;9455;54.302;10.124;2024-03-08T12:12:53;36.30;;;11.63;;
18651;SDS011;9455;54.302;10.124;2024-03-08T12:15:25;28.83;;;11.33;;
18651;SDS011;9455;54.302;10.124;2024-03-08T12:17:53;29.20;;;12.23;;
18651;SDS011;9455;54.302;10.124;2024-03-08T12:20:22;30.57;;;12.13;;
18651;SDS011;9455;54.302;10.124;2024-03-08T12:22:50;33.50;;;12.10;;
18651;SDS011;9455;54.302;10.124;2024-03-08T12:25:17;32.70;;;11.80;;
18651;SDS011;9455;54.302;10.124;2024-03-08T12:27:45;29.07;;;11.73;;
18651;SDS011;9455;54.302;10.124;2024-03-08T12:30:19;28.77;;;12.47;;
18651;SDS011;9455;54.302;10.124;2024-03-08T12:32:54;25.00;;;11.40;;
18651;SDS011;9455;54.302;10.124;2024-03-08T12:35:23;28.67;;;11.23;;
18651;SDS011;9455;54.302;10.124;2024-03-08T12:37:51;30.40;;;13.00;;
18651;SDS011;9455;54.302;10.124;2024-03-08T12:40:19;27.80;;;11.73;;
18651;SDS011;9455;54.302;10.124;2024-03-08T12:42:52;27.70;;;12.03;;
18651;SDS011;9455;54.302;10.124;2024-03-08T12:45:20;29.53;;;12.57;;
18651;SDS011;9455;54.302;10.124;2024-03-08T12:47:49;29.50;;;12.43;;
18651;SDS011;9455;54.302;10.124;2024-03-08T12:50:17;30.50;;;12.03;;
18651;SDS011;9455;54.302;10.124;2024-03-08T12:52:44;29.37;;;12.50;;
18651;SDS011;9455;54.302;10.124;2024-03-08T12:55:10;30.00;;;12.40;;
18651;SDS011;9455;54.302;10.124;2024-03-08T12:57:37;27.57;;;12.80;;
18651;SDS011;9455;54.302;10.124;2024-03-08T13:00:04;36.77;;;13.77;;
18651;SDS011;9455;54.302;10.124;2024-03-08T13:02:38;33.23;;;13.23;;
18651;SDS011;9455;54.302;10.124;2024-03-08T13:05:05;33.13;;;13.20;;
18651;SDS011;9455;54.302;10.124;2024-03-08T13:07:36;31.30;;;12.20;;
18651;SDS011;9455;54.302;10.124;2024-03-08T13:10:04;24.83;;;10.83;;
18651;SDS011;9455;54.302;10.124;2024-03-08T13:12:32;28.33;;;12.63;;
18651;SDS011;9455;54.302;10.124;2024-03-08T13:15:01;27.53;;;11.67;;
18651;SDS011;9455;54.302;10.124;2024-03-08T13:17:27;30.53;;;12.03;;
18651;SDS011;9455;54.302;10.124;2024-03-08T13:19:54;31.63;;;12.43;;
18651;SDS011;9455;54.302;10.124;2024-03-08T13:22:23;34.20;;;13.20;;
18651;SDS011;9455;54.302;10.124;2024-03-08T13:24:51;36.37;;;14.40;;
18651;SDS011;9455;54.302;10.124;2024-03-08T13:27:19;28.60;;;12.43;;
18651;SDS011;9455;54.302;10.124;2024-03-08T13:29:47;33.50;;;12.60;;
18651;SDS011;9455;54.302;10.124;2024-03-08T13:32:14;37.67;;;13.53;;
18651;SDS011;9455;54.302;10.124;2024-03-08T13:34:42;32.87;;;12.27;;
18651;SDS011;9455;54.302;10.124;2024-03-08T13:37:10;30.17;;;12.53;;
18651;SDS011;9455;54.302;10.124;2024-03-08T13:39:37;24.70;;;12.07;;
18651;SDS011;9455;54.302;10.124;2024-03-08T13:42:10;28.30;;;11.67;;
18651;SDS011;9455;54.302;10.124;2024-03-08T13:44:43;37.20;;;13.67;;
18651;SDS011;9455;54.302;10.124;2024-03-08T13:47:10;33.97;;;13.83;;
18651;SDS011;9455;54.302;10.124;2024-03-08T13:49:38;27.67;;;12.00;;
18651;SDS011;9455;54.302;10.124;2024-03-08T13:52:05;32.83;;;12.03;;
18651;SDS011;9455;54.302;10.124;2024-03-08T13:54:33;31.77;;;12.77;;
18651;SDS011;9455;54.302;10.124;2024-03-08T13:57:03;35.63;;;13.07;;
18651;SDS011;9455;54.302;10.124;2024-03-08T13:59:32;35.53;;;13.83;;
18651;SDS011;9455;54.302;10.124;2024-03-08T14:02:00;32.10;;;13.23;;
18651;SDS011;9455;54.302;10.124;2024-03-08T14:04:27;29.87;;;13.10;;
18651;SDS011;9455;54.302;10.124;2024-03-08T14:06:54;28.87;;;12.63;;
18651;SDS011;9455;54.302;10.124;2024-03-08T14:09:24;38.67;;;14.63;;
18651;SDS011;9455;54.302;10.124;2024-03-08T14:11:51;32.50;;;12.33;;
18651;SDS011;9455;54.302;10.124;2024-03-08T14:14:20;35.07;;;14.13;;
18651;SDS011;9455;54.302;10.124;2024-03-08T14:16:50;34.10;;;14.03;;
18651;SDS011;9455;54.302;10.124;2024-03-08T14:19:20;35.20;;;13.50;;
18651;SDS011;9455;54.302;10.124;2024-03-08T14:21:47;32.30;;;13.10;;
18651;SDS011;9455;54.302;10.124;2024-03-08T14:24:14;43.77;;;14.83;;
18651;SDS011;9455;54.302;10.124;2024-03-08T14:26:41;32.40;;;12.83;;
18651;SDS011;9455;54.302;10.124;2024-03-08T14:29:08;37.20;;;13.47;;
18651;SDS011;9455;54.302;10.124;2024-03-08T14:31:36;34.37;;;13.87;;